sensor_id;sensor_type;location;lat;lon;timestamp;pressure;altitude;pressure_sealevel;temperature
20848;BMP180;10584;50.854;12.902;2022-08-21T06:14:48;98128.00;;;17.60
20848;BMP180;10584;50.854;12.902;2022-08-21T06:19:55;98123.00;;;17.70
20848;BMP180;10584;50.854;12.902;2022-08-21T06:24:57;98124.00;;;17.90
20848;BMP180;10584;50.854;12.902;2022-08-21T06:30:00;98122.00;;;18.00
20848;BMP180;10584;50.854;12.902;2022-08-21T07:35:39;98147.00;;;18.40
20848;BMP180;10584;50.854;12.902;2022-08-21T07:51:17;98148.00;;;18.60
20848;BMP180;10584;50.854;12.902;2022-08-21T07:56:39;98138.00;;;18.70
20848;BMP180;10584;50.854;12.902;2022-08-21T08:01:41;98140.00;;;18.90
20848;BMP180;10584;50.854;12.902;2022-08-21T08:06:44;98139.00;;;18.80
20848;BMP180;10584;50.854;12.902;2022-08-21T08:11:48;98145.00;;;18.90
20848;BMP180;10584;50.854;12.902;2022-08-21T08:16:51;98145.00;;;19.00
20848;BMP180;10584;50.854;12.902;2022-08-21T08:21:54;98147.00;;;19.10
20848;BMP180;10584;50.854;12.902;2022-08-21T08:26:57;98137.00;;;19.30
20848;BMP180;10584;50.854;12.902;2022-08-21T08:32:00;98149.00;;;19.50
20848;BMP180;10584;50.854;12.902;2022-08-21T08:37:04;98153.00;;;19.70
20848;BMP180;10584;50.854;12.902;2022-08-21T08:42:15;98154.00;;;19.80
20848;BMP180;10584;50.854;12.902;2022-08-21T08:47:38;98160.00;;;20.00
20848;BMP180;10584;50.854;12.902;2022-08-21T08:53:00;98169.00;;;20.00
20848;BMP180;10584;50.854;12.902;2022-08-21T08:58:19;98170.00;;;20.00
20848;BMP180;10584;50.854;12.902;2022-08-21T09:03:23;98173.00;;;20.10
20848;BMP180;10584;50.854;12.902;2022-08-21T09:08:46;98162.00;;;20.20
20848;BMP180;10584;50.854;12.902;2022-08-21T09:29:51;98154.00;;;20.90
20848;BMP180;10584;50.854;12.902;2022-08-21T09:35:01;98150.00;;;21.10
20848;BMP180;10584;50.854;12.902;2022-08-21T09:45:22;98147.00;;;21.30
20848;BMP180;10584;50.854;12.902;2022-08-21T09:50:27;98154.00;;;21.40
20848;BMP180;10584;50.854;12.902;2022-08-21T09:55:38;98143.00;;;21.50
20848;BMP180;10584;50.854;12.902;2022-08-21T10:01:02;98144.00;;;21.70
20848;BMP180;10584;50.854;12.902;2022-08-21T10:06:08;98135.00;;;22.00
20848;BMP180;10584;50.854;12.902;2022-08-21T10:11:15;98132.00;;;22.40
20848;BMP180;10584;50.854;12.902;2022-08-21T10:48:53;98147.00;;;23.00
20848;BMP180;10584;50.854;12.902;2022-08-21T10:54:53;98143.00;;;22.90
20848;BMP180;10584;50.854;12.902;2022-08-21T11:05:02;98134.00;;;23.10
20848;BMP180;10584;50.854;12.902;2022-08-21T11:10:50;98130.00;;;23.10
20848;BMP180;10584;50.854;12.902;2022-08-21T11:32:49;98140.00;;;23.20
20848;BMP180;10584;50.854;12.902;2022-08-21T11:53:58;98138.00;;;23.10
20848;BMP180;10584;50.854;12.902;2022-08-21T11:59:14;98137.00;;;23.00
20848;BMP180;10584;50.854;12.902;2022-08-21T12:04:35;98124.00;;;23.30
20848;BMP180;10584;50.854;12.902;2022-08-21T12:09:56;98130.00;;;23.40
20848;BMP180;10584;50.854;12.902;2022-08-21T12:25:38;98130.00;;;23.80
20848;BMP180;10584;50.854;12.902;2022-08-21T12:30:46;98127.00;;;24.10
20848;BMP180;10584;50.854;12.902;2022-08-21T12:35:52;98132.00;;;24.20
20848;BMP180;10584;50.854;12.902;2022-08-21T12:46:24;98113.00;;;24.60
20848;BMP180;10584;50.854;12.902;2022-08-21T12:57:02;98111.00;;;24.50
20848;BMP180;10584;50.854;12.902;2022-08-21T13:02:18;98107.00;;;24.40
20848;BMP180;10584;50.854;12.902;2022-08-21T13:07:27;98107.00;;;24.30
20848;BMP180;10584;50.854;12.902;2022-08-21T13:12:31;98109.00;;;24.40
20848;BMP180;10584;50.854;12.902;2022-08-21T13:17:38;98110.00;;;24.30
20848;BMP180;10584;50.854;12.902;2022-08-21T13:22:43;98117.00;;;24.20
20848;BMP180;10584;50.854;12.902;2022-08-21T13:27:59;98110.00;;;24.20
20848;BMP180;10584;50.854;12.902;2022-08-21T13:33:05;98105.00;;;24.60
20848;BMP180;10584;50.854;12.902;2022-08-21T13:38:15;98108.00;;;24.50
20848;BMP180;10584;50.854;12.902;2022-08-21T13:43:21;98099.00;;;24.60
20848;BMP180;10584;50.854;12.902;2022-08-21T13:48:27;98107.00;;;24.60
20848;BMP180;10584;50.854;12.902;2022-08-21T13:53:36;98109.00;;;24.60
20848;BMP180;10584;50.854;12.902;2022-08-21T13:58:45;98110.00;;;24.40
20848;BMP180;10584;50.854;12.902;2022-08-21T14:03:50;98105.00;;;24.10
20848;BMP180;10584;50.854;12.902;2022-08-21T14:09:13;98100.00;;;24.40
20848;BMP180;10584;50.854;12.902;2022-08-21T14:14:26;98098.00;;;24.60
20848;BMP180;10584;50.854;12.902;2022-08-21T14:19:45;98103.00;;;24.60
20848;BMP180;10584;50.854;12.902;2022-08-21T14:24:48;98091.00;;;24.80
20848;BMP180;10584;50.854;12.902;2022-08-21T14:30:41;98088.00;;;24.60
20848;BMP180;10584;50.854;12.902;2022-08-21T14:35:44;98097.00;;;24.40
20848;BMP180;10584;50.854;12.902;2022-08-21T14:40:50;98091.00;;;24.60
20848;BMP180;10584;50.854;12.902;2022-08-21T14:45:55;98091.00;;;24.70
20848;BMP180;10584;50.854;12.902;2022-08-21T14:50:58;98096.00;;;24.70
20848;BMP180;10584;50.854;12.902;2022-08-21T14:56:02;98101.00;;;24.70
20848;BMP180;10584;50.854;12.902;2022-08-21T15:01:09;98087.00;;;24.30
20848;BMP180;10584;50.854;12.902;2022-08-21T15:06:13;98093.00;;;24.20
20848;BMP180;10584;50.854;12.902;2022-08-21T15:11:21;98089.00;;;24.30
20848;BMP180;10584;50.854;12.902;2022-08-21T15:16:44;98091.00;;;24.50
20848;BMP180;10584;50.854;12.902;2022-08-21T15:21:47;98096.00;;;24.40
20848;BMP180;10584;50.854;12.902;2022-08-21T15:26:51;98096.00;;;24.50
20848;BMP180;10584;50.854;12.902;2022-08-21T15:31:57;98094.00;;;24.40
20848;BMP180;10584;50.854;12.902;2022-08-21T15:37:00;98101.00;;;24.30
20848;BMP180;10584;50.854;12.902;2022-08-21T15:42:04;98086.00;;;24.00
20848;BMP180;10584;50.854;12.902;2022-08-21T15:47:15;98094.00;;;23.80
20848;BMP180;10584;50.854;12.902;2022-08-21T15:52:20;98099.00;;;23.70
20848;BMP180;10584;50.854;12.902;2022-08-21T15:57:24;98092.00;;;23.60
20848;BMP180;10584;50.854;12.902;2022-08-21T16:02:30;98091.00;;;23.80
20848;BMP180;10584;50.854;12.902;2022-08-21T16:07:34;98086.00;;;24.00
20848;BMP180;10584;50.854;12.902;2022-08-21T16:12:41;98084.00;;;24.20
20848;BMP180;10584;50.854;12.902;2022-08-21T16:17:46;98095.00;;;24.30
20848;BMP180;10584;50.854;12.902;2022-08-21T16:22:51;98083.00;;;24.40
20848;BMP180;10584;50.854;12.902;2022-08-21T16:27:57;98078.00;;;24.50
20848;BMP180;10584;50.854;12.902;2022-08-21T16:33:03;98071.00;;;24.60
20848;BMP180;10584;50.854;12.902;2022-08-21T16:38:06;98074.00;;;24.70
20848;BMP180;10584;50.854;12.902;2022-08-21T16:43:09;98073.00;;;24.70
20848;BMP180;10584;50.854;12.902;2022-08-21T16:48:12;98066.00;;;24.70
20848;BMP180;10584;50.854;12.902;2022-08-21T16:53:15;98069.00;;;24.60
20848;BMP180;10584;50.854;12.902;2022-08-21T16:58:34;98063.00;;;24.70
20848;BMP180;10584;50.854;12.902;2022-08-21T17:03:44;98060.00;;;24.60
20848;BMP180;10584;50.854;12.902;2022-08-21T17:08:48;98059.00;;;24.60
20848;BMP180;10584;50.854;12.902;2022-08-21T17:13:55;98072.00;;;24.40
20848;BMP180;10584;50.854;12.902;2022-08-21T17:18:59;98072.00;;;24.30
20848;BMP180;10584;50.854;12.902;2022-08-21T17:24:02;98080.00;;;24.30
20848;BMP180;10584;50.854;12.902;2022-08-21T17:29:05;98078.00;;;24.20
20848;BMP180;10584;50.854;12.902;2022-08-21T17:34:12;98088.00;;;24.10
20848;BMP180;10584;50.854;12.902;2022-08-21T17:39:14;98089.00;;;23.80
20848;BMP180;10584;50.854;12.902;2022-08-21T17:44:27;98082.00;;;23.70
20848;BMP180;10584;50.854;12.902;2022-08-21T17:49:30;98082.00;;;23.60
20848;BMP180;10584;50.854;12.902;2022-08-21T17:54:35;98094.00;;;23.20
20848;BMP180;10584;50.854;12.902;2022-08-21T17:59:38;98094.00;;;23.00
20848;BMP180;10584;50.854;12.902;2022-08-21T18:04:41;98099.00;;;22.70
20848;BMP180;10584;50.854;12.902;2022-08-21T18:09:44;98095.00;;;22.40
20848;BMP180;10584;50.854;12.902;2022-08-21T18:14:48;98103.00;;;22.10
20848;BMP180;10584;50.854;12.902;2022-08-21T18:19:51;98106.00;;;21.60
20848;BMP180;10584;50.854;12.902;2022-08-21T18:24:54;98112.00;;;21.40
20848;BMP180;10584;50.854;12.902;2022-08-21T18:29:58;98110.00;;;21.10
20848;BMP180;10584;50.854;12.902;2022-08-21T18:35:03;98123.00;;;20.70
20848;BMP180;10584;50.854;12.902;2022-08-21T18:40:07;98118.00;;;20.50
20848;BMP180;10584;50.854;12.902;2022-08-21T18:45:13;98127.00;;;20.10
20848;BMP180;10584;50.854;12.902;2022-08-21T18:50:19;98128.00;;;19.90
20848;BMP180;10584;50.854;12.902;2022-08-21T18:55:27;98129.00;;;19.60
20848;BMP180;10584;50.854;12.902;2022-08-21T19:00:33;98127.00;;;19.40
20848;BMP180;10584;50.854;12.902;2022-08-21T19:05:37;98125.00;;;19.10
20848;BMP180;10584;50.854;12.902;2022-08-21T19:10:44;98133.00;;;18.90
20848;BMP180;10584;50.854;12.902;2022-08-21T19:15:49;98135.00;;;18.60
20848;BMP180;10584;50.854;12.902;2022-08-21T19:20:54;98135.00;;;18.30
20848;BMP180;10584;50.854;12.902;2022-08-21T19:26:01;98133.00;;;18.10
20848;BMP180;10584;50.854;12.902;2022-08-21T19:31:20;98133.00;;;17.90
20848;BMP180;10584;50.854;12.902;2022-08-21T19:36:25;98143.00;;;17.70
20848;BMP180;10584;50.854;12.902;2022-08-21T19:41:31;98138.00;;;17.50
20848;BMP180;10584;50.854;12.902;2022-08-21T19:46:37;98147.00;;;17.30
20848;BMP180;10584;50.854;12.902;2022-08-21T19:51:42;98133.00;;;17.00
20848;BMP180;10584;50.854;12.902;2022-08-21T19:56:46;98141.00;;;16.80
20848;BMP180;10584;50.854;12.902;2022-08-21T20:01:49;98140.00;;;16.60
20848;BMP180;10584;50.854;12.902;2022-08-21T20:06:52;98137.00;;;16.50
20848;BMP180;10584;50.854;12.902;2022-08-21T20:11:58;98138.00;;;16.30
20848;BMP180;10584;50.854;12.902;2022-08-21T20:17:11;98129.00;;;16.20
20848;BMP180;10584;50.854;12.902;2022-08-21T20:22:15;98129.00;;;16.00
20848;BMP180;10584;50.854;12.902;2022-08-21T20:27:23;98122.00;;;15.90
20848;BMP180;10584;50.854;12.902;2022-08-21T20:32:26;98121.00;;;15.70
20848;BMP180;10584;50.854;12.902;2022-08-21T20:37:28;98125.00;;;15.60
20848;BMP180;10584;50.854;12.902;2022-08-21T20:42:52;98121.00;;;15.50
20848;BMP180;10584;50.854;12.902;2022-08-21T20:48:08;98112.00;;;15.40
20848;BMP180;10584;50.854;12.902;2022-08-21T20:53:28;98115.00;;;15.30
20848;BMP180;10584;50.854;12.902;2022-08-21T20:58:54;98117.00;;;15.20
20848;BMP180;10584;50.854;12.902;2022-08-21T21:04:05;98122.00;;;15.10
20848;BMP180;10584;50.854;12.902;2022-08-21T21:09:26;98112.00;;;15.00
20848;BMP180;10584;50.854;12.902;2022-08-21T21:14:41;98115.00;;;14.90
20848;BMP180;10584;50.854;12.902;2022-08-21T21:25:38;98111.00;;;14.60
20848;BMP180;10584;50.854;12.902;2022-08-21T21:30:45;98106.00;;;14.50
20848;BMP180;10584;50.854;12.902;2022-08-21T21:52:39;98103.00;;;14.10
20848;BMP180;10584;50.854;12.902;2022-08-21T22:03:24;98106.00;;;13.80
20848;BMP180;10584;50.854;12.902;2022-08-21T22:19:01;98118.00;;;13.50
20848;BMP180;10584;50.854;12.902;2022-08-21T22:24:15;98106.00;;;13.40
20848;BMP180;10584;50.854;12.902;2022-08-21T22:29:21;98113.00;;;13.30
20848;BMP180;10584;50.854;12.902;2022-08-21T22:34:24;98106.00;;;13.20
20848;BMP180;10584;50.854;12.902;2022-08-21T22:39:33;98115.00;;;13.10
20848;BMP180;10584;50.854;12.902;2022-08-21T22:44:57;98105.00;;;13.00
20848;BMP180;10584;50.854;12.902;2022-08-21T22:50:04;98105.00;;;12.90
20848;BMP180;10584;50.854;12.902;2022-08-21T23:01:13;98119.00;;;12.70
20848;BMP180;10584;50.854;12.902;2022-08-21T23:06:48;98100.00;;;12.60
20848;BMP180;10584;50.854;12.902;2022-08-21T23:11:57;98110.00;;;12.50
20848;BMP180;10584;50.854;12.902;2022-08-21T23:17:11;98108.00;;;12.50
20848;BMP180;10584;50.854;12.902;2022-08-21T23:28:02;98115.00;;;12.30
